Terminal Aerodrome Forecast
Issued by NWS

Home | Current Version | Previous Version | Text Only | Print | Product List | Glossary On
Versions: 1 2 3 4 5 6 7 8 9 10 11 12 13 14 15 16
000
FTUS46 KPDT 251122
TAFALW
TAF
KALW 251122Z 2512/2612 18009KT P6SM BKN050 BKN080 OVC150
     FM251600 24007KT P6SM VCSH BKN035 OVC080
     FM251900 24009KT P6SM -SHRA OVC035
     FM260000 23011KT P6SM VCSH BKN040 OVC080
     FM260700 22010KT P6SM BKN080=

USA.gov is the U.S. government's official web portal to all federal, state and local government web resources and services.